sensor_id;sensor_type;location;lat;lon;timestamp;P1;durP1;ratioP1;P2;durP2;ratioP2
7883;SDS011;3987;51.458;7.238;2023-11-21T00:08:15;50.92;;;32.30;;
7883;SDS011;3987;51.458;7.238;2023-11-21T00:23:16;58.77;;;33.53;;
7883;SDS011;3987;51.458;7.238;2023-11-21T00:38:16;61.55;;;34.20;;
7883;SDS011;3987;51.458;7.238;2023-11-21T00:53:20;66.37;;;36.93;;
7883;SDS011;3987;51.458;7.238;2023-11-21T01:08:20;73.57;;;37.83;;
7883;SDS011;3987;51.458;7.238;2023-11-21T01:23:21;57.93;;;32.77;;
7883;SDS011;3987;51.458;7.238;2023-11-21T01:38:23;62.33;;;34.58;;
7883;SDS011;3987;51.458;7.238;2023-11-21T01:53:24;64.33;;;34.77;;
7883;SDS011;3987;51.458;7.238;2023-11-21T02:08:26;67.57;;;34.27;;
7883;SDS011;3987;51.458;7.238;2023-11-21T02:23:27;79.20;;;36.47;;
7883;SDS011;3987;51.458;7.238;2023-11-21T02:38:29;55.90;;;31.33;;
7883;SDS011;3987;51.458;7.238;2023-11-21T02:53:29;62.10;;;32.00;;
7883;SDS011;3987;51.458;7.238;2023-11-21T03:08:30;69.22;;;34.30;;
7883;SDS011;3987;51.458;7.238;2023-11-21T03:23:30;67.70;;;33.63;;
7883;SDS011;3987;51.458;7.238;2023-11-21T03:38:31;65.30;;;33.17;;
7883;SDS011;3987;51.458;7.238;2023-11-21T03:53:31;62.93;;;32.30;;
7883;SDS011;3987;51.458;7.238;2023-11-21T04:08:32;68.72;;;33.67;;
7883;SDS011;3987;51.458;7.238;2023-11-21T04:23:35;64.87;;;32.67;;
7883;SDS011;3987;51.458;7.238;2023-11-21T04:38:36;72.43;;;34.47;;
7883;SDS011;3987;51.458;7.238;2023-11-21T04:53:36;93.10;;;35.33;;
7883;SDS011;3987;51.458;7.238;2023-11-21T05:08:36;82.17;;;36.47;;
7883;SDS011;3987;51.458;7.238;2023-11-21T05:23:37;69.33;;;34.13;;
7883;SDS011;3987;51.458;7.238;2023-11-21T05:38:38;82.65;;;35.40;;
7883;SDS011;3987;51.458;7.238;2023-11-21T05:53:38;62.33;;;30.42;;
7883;SDS011;3987;51.458;7.238;2023-11-21T06:08:39;82.13;;;38.83;;
7883;SDS011;3987;51.458;7.238;2023-11-21T06:23:39;100.73;;;48.73;;
7883;SDS011;3987;51.458;7.238;2023-11-21T06:38:39;89.57;;;40.20;;
7883;SDS011;3987;51.458;7.238;2023-11-21T06:53:40;85.40;;;34.65;;
7883;SDS011;3987;51.458;7.238;2023-11-21T07:08:40;92.47;;;35.20;;
7883;SDS011;3987;51.458;7.238;2023-11-21T07:23:42;99.03;;;37.13;;
7883;SDS011;3987;51.458;7.238;2023-11-21T07:38:43;91.95;;;35.72;;
7883;SDS011;3987;51.458;7.238;2023-11-21T07:53:43;90.65;;;38.13;;
7883;SDS011;3987;51.458;7.238;2023-11-21T08:08:50;95.88;;;39.70;;
7883;SDS011;3987;51.458;7.238;2023-11-21T08:23:51;89.53;;;37.70;;
7883;SDS011;3987;51.458;7.238;2023-11-21T08:38:56;85.63;;;35.87;;
7883;SDS011;3987;51.458;7.238;2023-11-21T08:53:56;117.63;;;42.37;;
7883;SDS011;3987;51.458;7.238;2023-11-21T09:08:59;160.05;;;49.40;;
7883;SDS011;3987;51.458;7.238;2023-11-21T09:24:00;176.83;;;55.27;;
7883;SDS011;3987;51.458;7.238;2023-11-21T09:39:02;144.98;;;54.00;;
7883;SDS011;3987;51.458;7.238;2023-11-21T09:54:06;145.80;;;54.50;;
7883;SDS011;3987;51.458;7.238;2023-11-21T10:09:11;148.47;;;55.13;;
7883;SDS011;3987;51.458;7.238;2023-11-21T10:24:20;154.93;;;57.57;;
7883;SDS011;3987;51.458;7.238;2023-11-21T10:39:20;151.37;;;54.10;;
7883;SDS011;3987;51.458;7.238;2023-11-21T10:54:24;136.67;;;53.63;;
7883;SDS011;3987;51.458;7.238;2023-11-21T11:09:25;115.27;;;48.83;;
7883;SDS011;3987;51.458;7.238;2023-11-21T11:39:57;117.67;;;46.93;;
7883;SDS011;3987;51.458;7.238;2023-11-21T11:54:59;133.50;;;51.90;;
7883;SDS011;3987;51.458;7.238;2023-11-21T12:10:00;94.77;;;46.77;;
7883;SDS011;3987;51.458;7.238;2023-11-21T12:25:00;71.80;;;38.87;;
7883;SDS011;3987;51.458;7.238;2023-11-21T12:40:00;60.55;;;34.08;;
7883;SDS011;3987;51.458;7.238;2023-11-21T12:55:02;39.40;;;27.80;;
7883;SDS011;3987;51.458;7.238;2023-11-21T13:10:03;43.20;;;31.13;;
7883;SDS011;3987;51.458;7.238;2023-11-21T13:25:05;40.97;;;31.53;;
7883;SDS011;3987;51.458;7.238;2023-11-21T13:40:07;49.20;;;32.90;;
7883;SDS011;3987;51.458;7.238;2023-11-21T13:55:14;48.67;;;29.07;;
7883;SDS011;3987;51.458;7.238;2023-11-21T14:10:15;38.30;;;25.50;;
7883;SDS011;3987;51.458;7.238;2023-11-21T14:25:21;33.90;;;23.00;;
7883;SDS011;3987;51.458;7.238;2023-11-21T14:40:22;20.63;;;17.35;;
7883;SDS011;3987;51.458;7.238;2023-11-21T14:55:24;13.30;;;12.20;;
7883;SDS011;3987;51.458;7.238;2023-11-21T15:10:32;8.50;;;8.10;;
7883;SDS011;3987;51.458;7.238;2023-11-21T15:25:45;8.80;;;8.40;;
7883;SDS011;3987;51.458;7.238;2023-11-21T15:40:46;13.77;;;12.88;;
7883;SDS011;3987;51.458;7.238;2023-11-21T15:55:47;16.17;;;14.90;;
7883;SDS011;3987;51.458;7.238;2023-11-21T16:10:47;23.02;;;20.83;;
7883;SDS011;3987;51.458;7.238;2023-11-21T16:25:48;17.48;;;16.13;;
7883;SDS011;3987;51.458;7.238;2023-11-21T16:40:54;16.30;;;15.03;;
7883;SDS011;3987;51.458;7.238;2023-11-21T16:55:55;18.40;;;16.90;;
7883;SDS011;3987;51.458;7.238;2023-11-21T17:10:55;19.30;;;17.70;;
7883;SDS011;3987;51.458;7.238;2023-11-21T17:25:56;22.95;;;20.75;;
7883;SDS011;3987;51.458;7.238;2023-11-21T17:40:56;23.58;;;21.38;;
7883;SDS011;3987;51.458;7.238;2023-11-21T17:55:57;23.42;;;21.15;;
7883;SDS011;3987;51.458;7.238;2023-11-21T18:10:57;19.13;;;17.48;;
7883;SDS011;3987;51.458;7.238;2023-11-21T18:25:59;18.13;;;16.57;;
7883;SDS011;3987;51.458;7.238;2023-11-21T18:41:00;15.48;;;14.30;;
7883;SDS011;3987;51.458;7.238;2023-11-21T18:56:00;16.80;;;15.52;;
7883;SDS011;3987;51.458;7.238;2023-11-21T19:11:01;16.50;;;15.30;;
7883;SDS011;3987;51.458;7.238;2023-11-21T19:26:01;17.43;;;16.13;;
7883;SDS011;3987;51.458;7.238;2023-11-21T19:41:02;18.23;;;16.63;;
7883;SDS011;3987;51.458;7.238;2023-11-21T19:56:03;19.70;;;17.95;;
7883;SDS011;3987;51.458;7.238;2023-11-21T20:11:09;16.73;;;15.53;;
7883;SDS011;3987;51.458;7.238;2023-11-21T20:26:10;17.65;;;16.08;;
7883;SDS011;3987;51.458;7.238;2023-11-21T20:41:10;16.87;;;15.47;;
7883;SDS011;3987;51.458;7.238;2023-11-21T20:56:12;18.70;;;17.13;;
7883;SDS011;3987;51.458;7.238;2023-11-21T21:11:16;22.02;;;19.92;;
7883;SDS011;3987;51.458;7.238;2023-11-21T21:26:17;20.17;;;18.37;;
7883;SDS011;3987;51.458;7.238;2023-11-21T21:41:20;16.10;;;14.90;;
7883;SDS011;3987;51.458;7.238;2023-11-21T21:56:20;14.70;;;13.65;;
7883;SDS011;3987;51.458;7.238;2023-11-21T22:11:21;15.43;;;14.27;;
7883;SDS011;3987;51.458;7.238;2023-11-21T22:26:21;15.37;;;14.27;;
7883;SDS011;3987;51.458;7.238;2023-11-21T22:41:24;13.35;;;12.55;;
7883;SDS011;3987;51.458;7.238;2023-11-21T22:56:25;10.27;;;9.88;;
7883;SDS011;3987;51.458;7.238;2023-11-21T23:11:26;10.97;;;10.47;;
7883;SDS011;3987;51.458;7.238;2023-11-21T23:26:27;13.70;;;12.80;;
7883;SDS011;3987;51.458;7.238;2023-11-21T23:41:27;13.45;;;12.43;;
7883;SDS011;3987;51.458;7.238;2023-11-21T23:56:29;12.85;;;12.02;;
